Time;durP1;ratioP1;P1;durP2;ratioP2;P2;SDS_P1;SDS_P2;PMS_P1;PMS_P2;Temp;Humidity;BMP_temperature;BMP_pressure;BME280_temperature;BME280_humidity;BME280_pressure;Samples;Min_cycle;Max_cycle;Signal;HPM_P1;HPM_P2
2022/06/19 00:01:52;;;;;;;16.38;3.47;;;14.80;99.90;;;;;;5028464;28;20052;-75
2022/06/19 00:04:18;;;;;;;16.10;3.58;;;14.80;99.90;;;;;;5079533;28;20060;-75
2022/06/19 00:06:44;;;;;;;15.73;3.63;;;14.80;99.90;;;;;;5045809;28;20087;-74
2022/06/19 00:09:11;;;;;;;16.25;4.18;;;14.70;99.90;;;;;;5046800;28;20051;-75
2022/06/19 00:11:40;;;;;;;20.75;3.47;;;14.80;99.90;;;;;;5045614;28;20095;-75
2022/06/19 00:14:07;;;;;;;17.83;4.88;;;14.70;99.90;;;;;;5063317;28;20052;-74
2022/06/19 00:16:34;;;;;;;14.25;3.75;;;14.70;99.90;;;;;;5046040;28;20047;-74
2022/06/19 00:19:00;;;;;;;18.15;4.05;;;14.70;99.90;;;;;;5023715;28;20055;-74
2022/06/19 00:21:27;;;;;;;15.88;2.88;;;14.70;99.90;;;;;;5028118;28;20040;-74
2022/06/19 00:23:53;;;;;;;19.83;3.78;;;14.60;99.90;;;;;;5060917;28;20044;-74
2022/06/19 00:26:19;;;;;;;17.98;3.40;;;14.70;99.90;;;;;;5046113;28;20123;-75
2022/06/19 00:28:47;;;;;;;19.48;4.20;;;14.70;99.90;;;;;;5028194;28;20051;-75
2022/06/19 00:31:14;;;;;;;11.60;3.20;;;14.60;99.90;;;;;;5061500;28;20876;-75
2022/06/19 00:33:41;;;;;;;13.55;2.75;;;14.60;99.90;;;;;;5047508;28;20656;-74
2022/06/19 00:36:07;;;;;;;15.65;3.50;;;14.60;99.90;;;;;;5060514;28;20131;-75
2022/06/19 00:38:33;;;;;;;19.92;4.20;;;14.60;99.90;;;;;;5076808;28;20795;-75
2022/06/19 00:41:01;;;;;;;15.52;3.33;;;14.60;99.90;;;;;;5026437;28;20079;-75
2022/06/19 00:43:28;;;;;;;17.35;3.58;;;14.60;99.90;;;;;;5044172;28;20101;-74
2022/06/19 00:45:58;;;;;;;17.67;3.33;;;14.60;99.90;;;;;;5039781;28;20119;-75
2022/06/19 00:48:30;;;;;;;16.88;3.85;;;14.60;99.90;;;;;;5058654;28;20044;-74
2022/06/19 00:51:00;;;;;;;12.32;3.25;;;14.60;99.90;;;;;;5039708;28;20055;-74
2022/06/19 00:53:37;;;;;;;16.17;3.65;;;14.60;99.90;;;;;;5045288;28;20047;-75
2022/06/19 00:56:04;;;;;;;13.60;3.10;;;14.60;99.90;;;;;;5070073;28;20503;-75
2022/06/19 00:58:35;;;;;;;16.65;3.65;;;14.60;99.90;;;;;;5028524;28;20415;-75
2022/06/19 01:01:06;;;;;;;13.57;3.63;;;14.60;99.90;;;;;;5060156;28;20400;-75
2022/06/19 01:03:51;;;;;;;19.50;3.63;;;14.60;99.90;;;;;;5076597;28;20689;-75
2022/06/19 01:06:17;;;;;;;19.83;4.22;;;14.70;99.90;;;;;;5093704;28;20082;-75
2022/06/19 01:08:44;;;;;;;11.75;2.72;;;14.60;99.90;;;;;;5043631;28;20048;-74
2022/06/19 01:11:10;;;;;;;17.23;3.50;;;14.70;99.90;;;;;;5046264;28;20040;-74
2022/06/19 01:13:36;;;;;;;10.45;3.17;;;14.70;99.90;;;;;;5049216;28;20056;-75
2022/06/19 01:16:04;;;;;;;16.20;3.45;;;14.70;99.90;;;;;;5042686;28;20640;-75
2022/06/19 01:18:33;;;;;;;13.82;3.35;;;14.70;99.90;;;;;;5078004;28;20055;-75
2022/06/19 01:21:33;;;;;;;16.00;3.78;;;14.70;99.90;;;;;;5052935;28;20054;-75
2022/06/19 01:24:33;;;;;;;16.70;3.28;;;14.70;99.90;;;;;;5003906;28;20048;-74
2022/06/19 01:27:01;;;;;;;17.25;3.80;;;14.80;99.90;;;;;;5058321;28;20047;-75
2022/06/19 01:29:33;;;;;;;15.18;3.47;;;14.70;99.90;;;;;;5023511;28;20044;-75
2022/06/19 01:32:02;;;;;;;12.48;2.92;;;14.80;99.90;;;;;;5057221;28;20047;-75
2022/06/19 01:34:36;;;;;;;14.55;2.53;;;14.90;99.90;;;;;;5046804;28;20047;-75
2022/06/19 01:37:20;;;;;;;13.23;2.70;;;14.90;99.90;;;;;;5065589;28;20048;-75
2022/06/19 01:39:49;;;;;;;13.30;2.50;;;14.80;99.90;;;;;;5037987;28;20056;-75
2022/06/19 01:42:17;;;;;;;11.80;2.58;;;14.90;99.90;;;;;;5020570;28;20043;-75
2022/06/19 01:44:45;;;;;;;10.50;2.22;;;14.90;99.90;;;;;;5062185;28;20055;-75
2022/06/19 01:47:11;;;;;;;9.73;1.88;;;15.00;99.90;;;;;;5061150;28;20043;-74
2022/06/19 01:49:41;;;;;;;9.52;3.08;;;15.00;99.90;;;;;;5044587;28;20044;-74
2022/06/19 01:52:07;;;;;;;7.80;1.85;;;15.00;99.90;;;;;;5052091;28;20055;-74
2022/06/19 01:54:41;;;;;;;11.85;2.00;;;14.90;99.90;;;;;;5026317;28;20052;-74
2022/06/19 01:57:10;;;;;;;10.80;1.70;;;15.00;99.90;;;;;;5038195;28;20149;-75
2022/06/19 01:59:40;;;;;;;10.00;2.22;;;15.00;99.90;;;;;;5061790;28;20048;-74
2022/06/19 02:02:09;;;;;;;10.07;1.92;;;15.00;99.90;;;;;;5057790;28;20052;-75
2022/06/19 02:04:35;;;;;;;8.93;2.22;;;15.00;99.90;;;;;;5072336;28;20052;-74
2022/06/19 02:07:07;;;;;;;10.02;2.15;;;14.90;99.90;;;;;;5045712;28;20171;-75
2022/06/19 02:09:35;;;;;;;12.98;2.10;;;14.90;99.90;;;;;;5060430;28;20059;-74
2022/06/19 02:12:02;;;;;;;8.50;2.05;;;15.00;99.90;;;;;;5008762;28;20044;-75
2022/06/19 02:14:30;;;;;;;8.85;2.08;;;15.00;99.90;;;;;;5056657;28;20057;-74
2022/06/19 02:16:58;;;;;;;11.90;2.15;;;14.90;99.90;;;;;;5025580;28;20053;-75
2022/06/19 02:19:24;;;;;;;9.18;2.60;;;14.90;99.90;;;;;;5028698;28;20100;-75
2022/06/19 02:21:55;;;;;;;7.93;2.25;;;14.90;99.90;;;;;;5040931;28;20086;-74
2022/06/19 02:24:24;;;;;;;11.00;2.92;;;14.90;99.90;;;;;;5044131;28;20089;-75
2022/06/19 02:26:51;;;;;;;7.68;2.00;;;14.90;99.90;;;;;;5077749;28;20114;-75
2022/06/19 02:29:19;;;;;;;12.95;2.30;;;14.90;99.90;;;;;;5010430;28;20051;-75
2022/06/19 02:31:50;;;;;;;12.20;2.42;;;15.00;99.90;;;;;;5046139;28;20040;-74
2022/06/19 02:34:26;;;;;;;14.75;2.25;;;14.90;99.90;;;;;;5042378;28;20047;-74
2022/06/19 02:36:56;;;;;;;15.65;3.30;;;14.90;99.90;;;;;;5063586;28;20577;-75
2022/06/19 02:39:38;;;;;;;9.55;2.55;;;14.90;99.90;;;;;;5065628;28;20063;-74
2022/06/19 02:42:20;;;;;;;;;;;15.00;99.90;;;;;;5061911;28;20075;-74
2022/06/19 02:44:49;;;;;;;11.52;2.55;;;14.90;99.90;;;;;;5060813;28;19961;-74
2022/06/19 02:47:15;;;;;;;10.32;2.13;;;14.90;99.90;;;;;;5047365;28;20150;-74
2022/06/19 02:49:42;;;;;;;9.77;2.60;;;14.90;99.90;;;;;;5045038;28;20044;-74
2022/06/19 02:52:11;;;;;;;16.33;3.22;;;14.90;99.90;;;;;;5029984;28;20040;-74
2022/06/19 02:54:37;;;;;;;13.05;2.72;;;14.90;99.90;;;;;;5059312;28;20442;-74
2022/06/19 02:57:05;;;;;;;12.20;2.65;;;14.90;99.90;;;;;;5014634;28;20044;-74
2022/06/19 02:59:32;;;;;;;14.45;2.63;;;15.00;99.90;;;;;;5047329;28;20099;-74
2022/06/19 03:01:58;;;;;;;11.40;2.60;;;15.00;99.90;;;;;;5068571;28;20041;-74
2022/06/19 03:04:29;;;;;;;16.45;2.83;;;15.00;99.90;;;;;;5046582;28;20572;-74
2022/06/19 03:06:56;;;;;;;17.43;3.93;;;15.00;99.90;;;;;;5027038;28;20051;-74
2022/06/19 03:09:22;;;;;;;16.13;2.90;;;15.00;99.90;;;;;;5045573;28;20735;-74
2022/06/19 03:11:48;;;;;;;13.50;2.72;;;15.00;99.90;;;;;;5045623;28;20040;-74
2022/06/19 03:14:15;;;;;;;15.50;3.25;;;14.90;99.90;;;;;;5043525;28;20048;-74
2022/06/19 03:16:42;;;;;;;14.52;2.67;;;15.00;99.90;;;;;;5078892;28;20059;-74
2022/06/19 03:19:08;;;;;;;14.40;2.70;;;15.00;99.90;;;;;;5059580;28;20068;-73
2022/06/19 03:21:34;;;;;;;12.15;2.70;;;14.90;99.90;;;;;;5079635;28;20048;-74
2022/06/19 03:24:03;;;;;;;12.85;3.10;;;14.90;99.90;;;;;;5030768;28;20036;-74
2022/06/19 03:26:30;;;;;;;11.60;2.40;;;14.90;99.90;;;;;;5047311;28;20048;-75
2022/06/19 03:28:57;;;;;;;13.45;3.45;;;14.90;99.90;;;;;;5045992;28;20051;-74
2022/06/19 03:31:25;;;;;;;10.63;2.90;;;14.80;99.90;;;;;;5052174;28;20097;-74
2022/06/19 03:33:52;;;;;;;12.98;2.67;;;14.90;99.90;;;;;;5045870;28;20093;-74
2022/06/19 03:36:19;;;;;;;16.65;2.80;;;14.80;99.90;;;;;;5064401;28;20043;-74
2022/06/19 03:38:45;;;;;;;14.13;2.95;;;14.70;99.90;;;;;;5061057;28;20108;-74
2022/06/19 03:41:12;;;;;;;18.58;2.92;;;14.60;99.90;;;;;;5018683;28;20419;-74
2022/06/19 03:43:39;;;;;;;18.25;3.38;;;14.60;99.90;;;;;;5050794;28;20044;-74
2022/06/19 03:46:12;;;;;;;11.90;3.17;;;14.60;99.90;;;;;;5027008;28;20043;-74
2022/06/19 03:48:45;;;;;;;14.10;2.72;;;14.70;99.90;;;;;;5042505;28;20052;-72
2022/06/19 03:51:11;;;;;;;13.60;2.60;;;14.60;99.90;;;;;;5046266;28;20052;-72
2022/06/19 03:53:38;;;;;;;12.85;2.55;;;14.70;99.90;;;;;;5045765;28;20161;-73
2022/06/19 03:56:06;;;;;;;11.52;2.28;;;14.60;99.90;;;;;;5027661;28;20036;-72
2022/06/19 03:58:47;;;;;;;18.48;3.08;;;14.60;99.90;;;;;;5064760;28;20083;-73
2022/06/19 04:01:27;;;;;;;17.55;3.00;;;14.60;99.90;;;;;;5062992;28;20044;-73
2022/06/19 04:03:55;;;;;;;13.32;2.55;;;14.60;99.90;;;;;;5047335;28;20055;-73
2022/06/19 04:06:27;;;;;;;17.30;2.60;;;14.60;99.90;;;;;;5076466;28;20182;-74
2022/06/19 04:08:53;;;;;;;12.50;2.45;;;14.60;99.90;;;;;;5030108;28;20104;-75
2022/06/19 04:11:20;;;;;;;15.93;2.88;;;14.60;99.90;;;;;;5044972;28;20040;-74
2022/06/19 04:13:47;;;;;;;11.45;2.30;;;14.60;99.90;;;;;;5037243;28;20870;-74
2022/06/19 04:16:21;;;;;;;11.68;2.78;;;14.50;99.90;;;;;;5044687;28;20048;-74
2022/06/19 04:18:51;;;;;;;16.05;3.65;;;14.60;99.90;;;;;;5076798;28;20047;-74
2022/06/19 04:21:19;;;;;;;10.00;2.08;;;14.40;99.90;;;;;;5060854;28;20118;-74
2022/06/19 04:23:46;;;;;;;14.05;2.28;;;14.40;99.90;;;;;;5095728;28;20083;-75
2022/06/19 04:26:15;;;;;;;10.07;2.33;;;14.40;99.90;;;;;;5076406;28;20044;-74
2022/06/19 04:28:41;;;;;;;8.77;2.35;;;14.40;99.90;;;;;;5040587;28;20040;-74
2022/06/19 04:31:08;;;;;;;15.25;3.15;;;14.40;99.90;;;;;;5060620;28;20056;-74
2022/06/19 04:33:38;;;;;;;14.10;2.72;;;14.40;99.90;;;;;;5063721;28;20399;-74
2022/06/19 04:36:09;;;;;;;13.18;3.10;;;14.40;99.90;;;;;;5077110;28;20043;-74
2022/06/19 04:38:37;;;;;;;13.32;3.40;;;14.50;99.90;;;;;;5058726;28;20040;-75
2022/06/19 04:41:03;;;;;;;11.52;2.45;;;14.40;99.90;;;;;;5075720;28;20119;-74
2022/06/19 04:43:29;;;;;;;11.15;1.90;;;14.50;99.90;;;;;;5079943;28;20076;-74
2022/06/19 04:46:05;;;;;;;12.60;2.60;;;14.50;99.90;;;;;;5044990;28;20044;-75
2022/06/19 04:48:33;;;;;;;12.13;2.38;;;14.60;99.90;;;;;;5054866;28;20040;-75
2022/06/19 04:50:59;;;;;;;10.27;2.70;;;14.70;99.90;;;;;;5063391;28;20048;-74
2022/06/19 04:53:26;;;;;;;8.75;2.08;;;14.70;99.90;;;;;;5042883;28;20458;-74
2022/06/19 04:55:53;;;;;;;8.77;1.83;;;14.80;99.90;;;;;;5062638;28;20036;-75
2022/06/19 04:58:23;;;;;;;11.15;2.60;;;14.80;99.90;;;;;;5075541;28;20097;-75
2022/06/19 05:00:51;;;;;;;8.70;2.45;;;14.90;99.90;;;;;;5046273;28;20126;-75
2022/06/19 05:03:21;;;;;;;9.90;2.33;;;15.00;99.90;;;;;;5058133;28;20059;-75
2022/06/19 05:05:47;;;;;;;13.50;2.15;;;15.00;99.90;;;;;;5044208;28;20052;-75
2022/06/19 05:08:14;;;;;;;6.88;2.20;;;15.10;99.90;;;;;;5044624;28;20141;-75
2022/06/19 05:10:41;;;;;;;10.48;2.33;;;15.20;99.90;;;;;;5063021;28;20086;-75
2022/06/19 05:13:25;;;;;;;10.20;2.13;;;15.30;99.90;;;;;;5028283;28;20044;-75
2022/06/19 05:16:05;;;;;;;11.43;2.05;;;15.30;99.90;;;;;;5072294;28;21738;-75
2022/06/19 05:18:32;;;;;;;7.18;1.60;;;15.40;99.90;;;;;;5062155;28;20055;-75
2022/06/19 05:21:01;;;;;;;12.40;2.17;;;15.50;99.90;;;;;;5039338;28;20131;-75
2022/06/19 05:23:32;;;;;;;10.43;1.95;;;15.50;99.90;;;;;;5058098;28;20048;-75
2022/06/19 05:26:07;;;;;;;10.40;1.75;;;15.60;99.90;;;;;;5094361;27;20514;-74
2022/06/19 05:28:34;;;;;;;8.63;2.38;;;15.60;99.90;;;;;;5040962;28;20719;-75
2022/06/19 05:31:01;;;;;;;8.02;1.95;;;15.50;99.90;;;;;;5023935;28;20101;-75
2022/06/19 05:33:28;;;;;;;10.10;1.90;;;15.60;99.90;;;;;;5056138;28;20040;-76
2022/06/19 05:35:54;;;;;;;8.18;1.60;;;15.50;99.90;;;;;;5041540;28;20055;-75
2022/06/19 05:38:21;;;;;;;8.55;2.00;;;15.50;99.90;;;;;;5059201;28;20052;-76
2022/06/19 05:40:52;;;;;;;7.97;1.90;;;15.40;99.90;;;;;;5044053;28;20137;-76
2022/06/19 05:43:23;;;;;;;8.43;2.22;;;15.20;99.90;;;;;;5042223;28;20424;-75
2022/06/19 05:45:58;;;;;;;13.83;2.77;;;15.10;99.90;;;;;;5057814;28;20054;-76
2022/06/19 05:48:25;;;;;;;13.15;2.72;;;15.00;99.90;;;;;;5044084;28;20299;-76
2022/06/19 05:51:06;;;;;;;9.85;2.72;;;14.80;99.90;;;;;;5077725;28;20094;-76
2022/06/19 05:53:36;;;;;;;14.20;3.13;;;15.00;99.90;;;;;;5041326;28;20043;-76
2022/06/19 05:56:03;;;;;;;14.15;3.35;;;14.90;99.90;;;;;;5045204;28;20040;-76
2022/06/19 05:58:30;;;;;;;14.35;3.25;;;14.90;99.90;;;;;;5029717;28;20071;-75
2022/06/19 06:00:56;;;;;;;15.48;3.38;;;15.00;99.90;;;;;;5056221;28;20044;-76
2022/06/19 06:03:23;;;;;;;19.80;11.13;;;14.90;99.90;;;;;;5028672;28;20060;-75
2022/06/19 06:05:50;;;;;;;15.20;5.50;;;14.90;99.90;;;;;;5045362;28;20048;-75
2022/06/19 06:08:17;;;;;;;15.20;5.57;;;15.10;99.90;;;;;;5032147;28;20619;-76
2022/06/19 06:10:43;;;;;;;19.27;7.20;;;15.20;99.90;;;;;;5046575;28;20124;-76
2022/06/19 06:13:10;;;;;;;13.73;5.55;;;15.00;99.90;;;;;;5047562;28;20043;-74
2022/06/19 06:15:36;;;;;;;16.90;5.68;;;15.00;99.90;;;;;;5065678;28;20400;-74
2022/06/19 06:18:03;;;;;;;17.65;5.15;;;15.00;99.90;;;;;;5014436;28;20052;-76
2022/06/19 06:20:30;;;;;;;16.30;7.05;;;14.80;99.90;;;;;;5012510;28;20075;-75
2022/06/19 06:22:56;;;;;;;13.15;4.28;;;14.90;99.90;;;;;;5030531;28;20400;-76
2022/06/19 06:25:23;;;;;;;15.63;7.32;;;14.70;99.90;;;;;;5066536;28;20045;-76
2022/06/19 06:27:50;;;;;;;13.23;5.40;;;14.70;99.90;;;;;;5059868;28;20052;-76
2022/06/19 06:30:16;;;;;;;15.90;4.53;;;14.70;99.90;;;;;;5048061;28;20721;-79
2022/06/19 06:32:42;;;;;;;13.15;2.95;;;14.80;99.90;;;;;;5047038;28;20064;-79
2022/06/19 06:35:09;;;;;;;23.20;10.98;;;14.70;99.90;;;;;;5039324;28;20048;-75
2022/06/19 06:37:36;;;;;;;17.63;8.48;;;14.70;99.90;;;;;;5063683;28;20044;-75
2022/06/19 06:40:07;;;;;;;15.82;6.47;;;14.80;99.90;;;;;;5028847;28;20404;-74
2022/06/19 06:42:34;;;;;;;16.47;5.83;;;14.70;99.90;;;;;;5047520;28;20180;-74
2022/06/19 06:45:00;;;;;;;16.45;6.57;;;14.80;99.90;;;;;;5049351;28;21254;-74
2022/06/19 06:47:27;;;;;;;13.27;4.97;;;14.80;99.90;;;;;;5079417;28;20817;-76
2022/06/19 06:49:53;;;;;;;19.60;7.47;;;14.80;99.90;;;;;;5029838;28;20104;-75
2022/06/19 06:52:19;;;;;;;23.90;14.38;;;14.80;99.90;;;;;;5054766;28;20817;-75
2022/06/19 06:54:45;;;;;;;12.75;4.63;;;14.90;99.90;;;;;;5011432;28;20557;-74
2022/06/19 06:57:11;;;;;;;20.20;11.63;;;14.80;99.90;;;;;;5031296;28;20048;-75
2022/06/19 06:59:37;;;;;;;12.60;3.45;;;14.70;99.90;;;;;;5049506;28;20106;-75
2022/06/19 07:02:05;;;;;;;11.23;3.38;;;14.70;99.90;;;;;;5059003;28;20920;-75
2022/06/19 07:04:32;;;;;;;21.00;10.35;;;14.80;99.90;;;;;;5069491;28;20106;-75
2022/06/19 07:06:58;;;;;;;8.88;2.65;;;14.80;99.90;;;;;;5060399;28;20060;-75
2022/06/19 07:09:24;;;;;;;19.92;7.97;;;14.90;99.90;;;;;;5062161;28;20396;-75
2022/06/19 07:11:50;;;;;;;21.60;10.90;;;14.90;99.90;;;;;;5028071;28;20100;-75
2022/06/19 07:14:19;;;;;;;16.70;5.90;;;15.00;99.90;;;;;;5082553;28;20043;-75
2022/06/19 07:16:45;;;;;;;11.80;3.40;;;15.00;99.90;;;;;;5027793;28;20080;-75
2022/06/19 07:19:11;;;;;;;13.48;6.05;;;15.10;99.90;;;;;;5045130;28;20492;-75
2022/06/19 07:21:38;;;;;;;12.48;3.80;;;15.10;99.90;;;;;;5036944;28;20052;-75
2022/06/19 07:24:05;;;;;;;12.05;3.20;;;15.30;99.90;;;;;;5059782;28;20093;-75
2022/06/19 07:26:31;;;;;;;12.63;4.72;;;15.30;99.90;;;;;;5064685;28;20063;-75
2022/06/19 07:28:58;;;;;;;14.60;3.85;;;15.30;99.90;;;;;;5046813;28;20101;-75
2022/06/19 07:31:24;;;;;;;15.50;4.35;;;15.40;99.90;;;;;;5028581;28;20051;-75
2022/06/19 07:33:50;;;;;;;9.93;3.22;;;15.30;99.90;;;;;;5032936;28;20052;-75
2022/06/19 07:36:19;;;;;;;19.45;8.30;;;15.30;99.90;;;;;;5023519;28;20043;-75
2022/06/19 07:38:45;;;;;;;12.95;4.53;;;15.30;99.90;;;;;;5033697;28;20043;-75
2022/06/19 07:41:11;;;;;;;10.15;2.83;;;15.30;99.90;;;;;;5039294;28;20044;-75
2022/06/19 07:43:37;;;;;;;10.90;3.22;;;15.40;99.90;;;;;;5047368;28;20530;-75
2022/06/19 07:46:05;;;;;;;10.15;2.13;;;15.30;99.90;;;;;;5061360;28;20804;-75
2022/06/19 07:51:15;;;;;;;11.13;3.38;;;15.10;99.90;;;;;;5065113;28;20069;-75
2022/06/19 07:53:41;;;;;;;10.82;2.30;;;15.20;99.90;;;;;;5047002;28;20773;-75
2022/06/19 07:56:08;;;;;;;9.50;2.38;;;15.20;99.90;;;;;;5080464;28;20072;-75
2022/06/19 07:58:35;;;;;;;10.90;3.45;;;15.10;99.90;;;;;;5064369;28;20040;-75
2022/06/19 08:01:01;;;;;;;9.35;3.17;;;15.20;99.90;;;;;;5045922;28;20040;-75
2022/06/19 08:03:28;;;;;;;13.63;2.08;;;15.20;99.90;;;;;;5029863;28;20043;-75
2022/06/19 08:05:54;;;;;;;7.72;1.85;;;15.20;99.90;;;;;;5045019;28;20044;-75
2022/06/19 08:08:24;;;;;;;13.30;3.03;;;15.30;99.90;;;;;;5046987;28;20056;-75
2022/06/19 08:10:53;;;;;;;11.05;3.08;;;15.30;99.90;;;;;;5061199;28;20044;-75
2022/06/19 08:13:21;;;;;;;9.75;2.17;;;15.30;99.90;;;;;;5047049;28;20048;-75
2022/06/19 08:15:53;;;;;;;6.95;2.15;;;15.30;99.90;;;;;;5028328;28;20052;-75
2022/06/19 08:18:19;;;;;;;11.80;2.60;;;15.50;99.90;;;;;;5056944;28;20051;-75
2022/06/19 08:20:46;;;;;;;10.73;2.20;;;15.70;99.90;;;;;;5011992;28;20040;-75
2022/06/19 08:23:13;;;;;;;11.45;2.70;;;15.70;99.90;;;;;;5062891;28;20137;-75
2022/06/19 08:25:41;;;;;;;8.68;2.28;;;15.80;99.90;;;;;;5031462;28;20097;-75
2022/06/19 08:28:10;;;;;;;9.93;2.50;;;15.80;99.90;;;;;;5042373;28;20655;-75
2022/06/19 08:30:41;;;;;;;13.13;2.50;;;16.00;99.90;;;;;;5040879;28;20044;-75
2022/06/19 08:33:07;;;;;;;14.07;2.67;;;16.10;99.90;;;;;;5061749;28;20673;-76
2022/06/19 08:35:40;;;;;;;10.00;2.13;;;16.20;99.90;;;;;;5011677;28;20047;-75
2022/06/19 08:38:09;;;;;;;14.25;3.58;;;16.20;99.90;;;;;;5050956;28;20236;-75
2022/06/19 08:40:55;;;;;;;9.85;3.72;;;16.30;99.90;;;;;;5043462;28;20102;-75
2022/06/19 08:43:40;;;;;;;12.20;2.42;;;16.20;99.90;;;;;;5060652;28;20052;-78
2022/06/19 08:46:18;;;;;;;16.08;3.17;;;16.30;99.90;;;;;;5056869;28;20097;-75
2022/06/19 08:48:55;;;;;;;9.57;2.80;;;16.20;99.90;;;;;;5077833;28;20158;-76
2022/06/19 08:51:56;;;;;;;9.98;2.38;;;16.30;99.90;;;;;;5077566;28;20585;-76
2022/06/19 08:54:28;;;;;;;12.63;2.55;;;16.20;99.90;;;;;;5056195;28;20052;-75
2022/06/19 08:57:04;;;;;;;12.63;3.03;;;16.00;99.90;;;;;;5045951;28;20480;-76
2022/06/19 08:59:42;;;;;;;15.10;2.80;;;15.90;99.90;;;;;;5045960;28;20040;-76
2022/06/19 09:02:46;;;;;;;11.77;3.28;;;15.80;99.90;;;;;;5076944;28;20050;-76
2022/06/19 09:05:44;;;;;;;15.30;3.50;;;15.80;99.90;;;;;;5025309;28;20135;-76
2022/06/19 09:08:26;;;;;;;14.25;2.85;;;15.70;99.90;;;;;;5024978;28;20080;-75
2022/06/19 09:11:29;;;;;;;14.40;2.97;;;15.50;99.90;;;;;;5060387;28;20056;-76
2022/06/19 09:14:04;;;;;;;12.95;3.05;;;15.40;99.90;;;;;;5038083;28;21031;-76
2022/06/19 09:16:50;;;;;;;14.35;2.70;;;15.40;99.90;;;;;;5073314;28;20051;-76
2022/06/19 09:19:32;;;;;;;11.27;2.17;;;15.20;99.90;;;;;;5039586;28;20048;-76
2022/06/19 09:22:01;;;;;;;13.98;2.30;;;15.30;99.90;;;;;;5059587;28;20044;-76
2022/06/19 09:24:43;;;;;;;14.90;4.32;;;15.50;99.90;;;;;;5069110;28;20047;-74
2022/06/19 09:27:11;;;;;;;14.27;3.33;;;15.50;99.90;;;;;;5041030;28;20044;-74
2022/06/19 09:30:00;;;;;;;15.38;3.80;;;15.60;99.90;;;;;;5046242;28;20052;-74
2022/06/19 09:32:35;;;;;;;15.70;5.75;;;15.70;99.90;;;;;;5055256;28;20044;-74
2022/06/19 09:35:09;;;;;;;12.48;2.42;;;15.60;99.90;;;;;;5040528;28;20133;-74
2022/06/19 09:37:55;;;;;;;11.02;2.30;;;15.70;99.90;;;;;;5057567;28;20040;-76
2022/06/19 09:40:44;;;;;;;13.48;5.47;;;15.70;99.90;;;;;;5043071;28;20047;-75
2022/06/19 09:43:31;;;;;;;12.43;5.03;;;15.80;99.90;;;;;;5022246;28;20151;-75
2022/06/19 09:46:14;;;;;;;21.70;4.78;;;15.90;99.90;;;;;;5057288;28;20052;-75
2022/06/19 09:48:59;;;;;;;14.73;4.43;;;16.20;99.90;;;;;;5060960;28;20036;-75
2022/06/19 09:51:40;;;;;;;13.05;2.42;;;16.40;99.90;;;;;;5068465;28;20051;-75
2022/06/19 09:54:14;;;;;;;10.00;3.10;;;16.50;99.90;;;;;;5044448;28;20518;-74
2022/06/19 09:57:09;;;;;;;12.43;2.80;;;16.60;99.90;;;;;;5047815;28;20035;-74
2022/06/19 10:00:06;;;;;;;14.27;4.07;;;16.80;99.90;;;;;;5060179;28;20058;-74
2022/06/19 10:02:49;;;;;;;15.45;3.35;;;16.70;99.90;;;;;;5038710;28;20040;-74
2022/06/19 10:05:36;;;;;;;8.63;2.47;;;16.60;99.90;;;;;;5060233;28;20047;-74
2022/06/19 10:08:11;;;;;;;11.50;2.33;;;16.70;99.90;;;;;;5044897;28;20054;-75
2022/06/19 10:10:43;;;;;;;13.95;2.65;;;16.80;99.90;;;;;;5042006;28;20056;-75
2022/06/19 10:13:23;;;;;;;9.23;2.92;;;16.90;99.90;;;;;;5043080;28;20130;-75
2022/06/19 10:15:51;;;;;;;10.55;3.70;;;17.20;99.90;;;;;;5058494;28;20066;-74
2022/06/19 10:18:24;;;;;;;13.10;2.95;;;17.10;99.90;;;;;;5043327;28;20079;-74
2022/06/19 10:21:01;;;;;;;7.68;1.95;;;17.30;99.90;;;;;;5043757;28;20040;-76
2022/06/19 10:23:40;;;;;;;8.68;3.55;;;17.30;99.90;;;;;;5041430;28;20036;-76
2022/06/19 10:26:18;;;;;;;12.55;4.88;;;17.50;99.90;;;;;;5042903;28;20058;-76
2022/06/19 10:28:59;;;;;;;7.78;2.45;;;17.60;99.90;;;;;;5039825;28;20044;-76
2022/06/19 10:31:50;;;;;;;16.55;6.63;;;17.60;99.90;;;;;;5059735;28;20105;-75
2022/06/19 10:34:43;;;;;;;7.68;3.10;;;17.60;99.90;;;;;;5028230;28;20123;-75
2022/06/19 10:37:44;;;;;;;11.75;4.22;;;17.80;99.90;;;;;;5057556;28;20071;-76
2022/06/19 10:40:19;;;;;;;17.92;10.75;;;18.00;99.90;;;;;;5000170;28;20044;-76
2022/06/19 10:42:53;;;;;;;12.23;4.88;;;18.00;99.90;;;;;;5066356;28;20093;-75
2022/06/19 10:45:37;;;;;;;30.00;25.42;;;17.90;99.90;;;;;;5041921;28;20150;-73
2022/06/19 10:48:45;;;;;;;11.43;6.82;;;17.90;99.90;;;;;;5044873;28;20074;-76
2022/06/19 10:51:43;;;;;;;61.25;51.35;;;17.90;99.90;;;;;;5029253;28;20048;-82
2022/06/19 10:54:49;;;;;;;10.05;3.63;;;17.80;99.90;;;;;;5036285;28;20045;-77
2022/06/19 10:57:45;;;;;;;17.27;10.60;;;17.90;99.90;;;;;;5044815;28;20590;-77
2022/06/19 11:00:11;;;;;;;10.07;2.67;;;17.90;99.90;;;;;;5062140;28;20494;-77
2022/06/19 11:05:52;;;;;;;17.80;10.05;;;17.90;99.90;;;;;;5044607;28;20131;-76
2022/06/19 11:08:22;;;;;;;14.25;4.45;;;18.00;99.90;;;;;;5075311;28;20462;-77
2022/06/19 11:10:51;;;;;;;12.35;5.45;;;18.20;99.90;;;;;;5050716;28;20507;-78
2022/06/19 11:13:17;;;;;;;7.75;1.90;;;18.10;99.90;;;;;;5045613;28;20507;-77
2022/06/19 11:15:58;;;;;;;11.48;4.57;;;18.20;99.90;;;;;;5046187;28;20149;-77
2022/06/19 11:18:26;;;;;;;11.18;2.53;;;18.30;99.90;;;;;;5045998;28;20051;-77
2022/06/19 11:21:13;;;;;;;9.35;2.42;;;18.20;99.90;;;;;;5059772;28;20052;-77
2022/06/19 11:23:49;;;;;;;8.38;2.15;;;18.20;99.90;;;;;;5061002;28;20043;-78
2022/06/19 11:26:15;;;;;;;4.88;1.40;;;18.00;99.90;;;;;;5058632;28;20066;-77
2022/06/19 11:29:02;;;;;;;9.23;1.60;;;18.00;99.90;;;;;;5062112;28;20044;-77
2022/06/19 11:31:37;;;;;;;10.65;2.70;;;18.00;99.90;;;;;;5030633;28;20059;-77
2022/06/19 11:37:14;;;;;;;8.73;1.95;;;18.00;99.90;;;;;;5077204;28;20040;-77
2022/06/19 11:39:51;;;;;;;6.53;1.80;;;18.10;99.90;;;;;;5061731;28;20047;-78
2022/06/19 11:42:29;;;;;;;9.25;2.05;;;18.10;99.90;;;;;;5079212;28;20055;-76
2022/06/19 11:44:59;;;;;;;8.32;1.98;;;18.10;99.90;;;;;;5029279;28;20082;-77
2022/06/19 11:47:39;;;;;;;9.32;1.90;;;18.10;99.90;;;;;;5041235;28;20040;-77
2022/06/19 11:50:35;;;;;;;8.70;2.22;;;18.10;99.90;;;;;;5047940;28;20139;-77
2022/06/19 11:53:06;;;;;;;5.43;1.60;;;18.20;99.90;;;;;;5057039;28;20045;-76
2022/06/19 11:55:37;;;;;;;5.95;1.50;;;18.20;99.90;;;;;;5102472;27;20044;-77
2022/06/19 11:58:40;;;;;;;6.90;2.47;;;18.10;99.90;;;;;;5042936;28;20058;-77
2022/06/19 12:01:18;;;;;;;3.60;1.05;;;18.10;99.90;;;;;;5083139;28;20110;-77
2022/06/19 12:03:48;;;;;;;8.95;3.90;;;18.00;99.90;;;;;;5045709;28;20193;-77
2022/06/19 12:06:17;;;;;;;8.07;2.40;;;18.00;99.90;;;;;;5057488;28;20040;-77
2022/06/19 12:09:04;;;;;;;29.48;24.60;;;17.90;99.90;;;;;;5059479;28;20052;-76
2022/06/19 12:11:54;;;;;;;32.40;28.17;;;17.70;99.90;;;;;;5053310;28;20077;-77
2022/06/19 12:14:30;;;;;;;8.55;3.50;;;17.60;99.90;;;;;;5071267;28;20044;-78
2022/06/19 12:17:18;;;;;;;6.40;3.58;;;17.60;99.90;;;;;;5044640;28;20788;-77
2022/06/19 12:19:58;;;;;;;7.75;4.13;;;17.80;99.90;;;;;;5068837;28;20040;-78
2022/06/19 12:22:44;;;;;;;5.97;2.13;;;17.70;99.90;;;;;;5041410;28;20157;-79
2022/06/19 12:25:28;;;;;;;11.98;7.38;;;18.10;99.90;;;;;;5068334;28;20058;-78
2022/06/19 12:28:17;;;;;;;6.55;2.08;;;18.20;99.90;;;;;;5038363;28;20134;-78
2022/06/19 12:31:09;;;;;;;6.78;1.90;;;18.80;99.90;;;;;;5053950;28;20055;-78
2022/06/19 12:33:46;;;;;;;7.65;1.98;;;19.70;99.90;;;;;;5036159;28;20049;-78
2022/06/19 12:36:15;;;;;;;6.97;1.48;;;20.40;99.90;;;;;;5018350;28;20136;-78
2022/06/19 12:38:42;;;;;;;5.40;1.23;;;20.80;99.90;;;;;;5040721;28;20044;-79
2022/06/19 12:41:14;;;;;;;7.63;2.10;;;21.20;99.90;;;;;;5071633;28;20143;-78
2022/06/19 12:43:43;;;;;;;4.03;1.17;;;21.70;99.90;;;;;;5054985;28;20127;-79
2022/06/19 12:46:34;;;;;;;5.68;1.40;;;21.90;99.90;;;;;;5041643;28;20040;-78
2022/06/19 12:49:12;;;;;;;3.83;1.25;;;21.60;99.90;;;;;;5060647;28;20044;-78
2022/06/19 12:52:03;;;;;;;3.45;1.25;;;21.20;99.90;;;;;;5044282;28;20071;-78
2022/06/19 12:55:03;;;;;;;5.18;1.08;;;20.80;99.90;;;;;;5026283;28;20045;-78
2022/06/19 12:58:00;;;;;;;5.25;0.95;;;20.40;99.90;;;;;;5032488;28;20058;-78
2022/06/19 13:00:32;;;;;;;3.53;1.10;;;20.40;99.90;;;;;;5056233;28;20121;-78
2022/06/19 13:03:27;;;;;;;3.80;0.88;;;20.30;99.90;;;;;;5039760;28;20043;-78
2022/06/19 13:06:23;;;;;;;4.00;1.17;;;19.70;99.90;;;;;;5046644;28;20052;-78
2022/06/19 13:08:55;;;;;;;3.17;0.90;;;19.30;99.90;;;;;;5032789;28;20106;-78
2022/06/19 13:11:27;;;;;;;3.45;0.98;;;19.30;99.90;;;;;;5054873;28;20040;-84
2022/06/19 13:14:31;;;;;;;8.30;3.53;;;19.10;99.90;;;;;;5053869;28;20712;-77
2022/06/19 13:16:57;;;;;;;9.48;6.90;;;19.20;99.90;;;;;;5054963;28;20036;-77